sensor_id;sensor_type;location;lat;lon;timestamp;P1;durP1;ratioP1;P2;durP2;ratioP2
54977;SDS011;40873;47.522;19.106;2023-02-08T00:02:00;47.63;;;17.83;;
54977;SDS011;40873;47.522;19.106;2023-02-08T00:04:27;45.88;;;18.27;;
54977;SDS011;40873;47.522;19.106;2023-02-08T00:06:54;42.63;;;17.90;;
54977;SDS011;40873;47.522;19.106;2023-02-08T00:09:21;38.33;;;17.80;;
54977;SDS011;40873;47.522;19.106;2023-02-08T00:11:48;39.13;;;17.05;;
54977;SDS011;40873;47.522;19.106;2023-02-08T00:14:15;48.45;;;19.23;;
54977;SDS011;40873;47.522;19.106;2023-02-08T00:16:42;46.38;;;19.33;;
54977;SDS011;40873;47.522;19.106;2023-02-08T00:19:09;52.08;;;17.20;;
54977;SDS011;40873;47.522;19.106;2023-02-08T00:21:36;48.95;;;21.50;;
54977;SDS011;40873;47.522;19.106;2023-02-08T00:24:03;43.38;;;17.48;;
54977;SDS011;40873;47.522;19.106;2023-02-08T00:26:30;40.65;;;16.83;;
54977;SDS011;40873;47.522;19.106;2023-02-08T00:28:57;49.38;;;18.42;;
54977;SDS011;40873;47.522;19.106;2023-02-08T00:31:24;45.70;;;19.42;;
54977;SDS011;40873;47.522;19.106;2023-02-08T00:33:51;47.03;;;18.73;;
54977;SDS011;40873;47.522;19.106;2023-02-08T00:36:18;36.08;;;16.00;;
54977;SDS011;40873;47.522;19.106;2023-02-08T00:38:45;43.65;;;18.67;;
54977;SDS011;40873;47.522;19.106;2023-02-08T00:41:12;42.83;;;16.50;;
54977;SDS011;40873;47.522;19.106;2023-02-08T00:43:39;41.58;;;16.27;;
54977;SDS011;40873;47.522;19.106;2023-02-08T00:46:06;37.33;;;17.45;;
54977;SDS011;40873;47.522;19.106;2023-02-08T00:48:34;43.47;;;17.25;;
54977;SDS011;40873;47.522;19.106;2023-02-08T00:51:06;34.80;;;15.85;;
54977;SDS011;40873;47.522;19.106;2023-02-08T00:53:40;36.03;;;15.50;;
54977;SDS011;40873;47.522;19.106;2023-02-08T00:56:10;38.55;;;15.23;;
54977;SDS011;40873;47.522;19.106;2023-02-08T00:58:39;34.28;;;15.40;;
54977;SDS011;40873;47.522;19.106;2023-02-08T01:01:09;43.15;;;15.60;;
54977;SDS011;40873;47.522;19.106;2023-02-08T01:03:37;28.65;;;13.32;;
54977;SDS011;40873;47.522;19.106;2023-02-08T01:06:07;35.83;;;15.38;;
54977;SDS011;40873;47.522;19.106;2023-02-08T01:08:36;32.85;;;13.25;;
54977;SDS011;40873;47.522;19.106;2023-02-08T01:13:36;35.90;;;14.13;;
54977;SDS011;40873;47.522;19.106;2023-02-08T01:16:04;29.92;;;13.07;;
54977;SDS011;40873;47.522;19.106;2023-02-08T01:18:33;27.55;;;13.18;;
54977;SDS011;40873;47.522;19.106;2023-02-08T01:21:04;35.35;;;14.05;;
54977;SDS011;40873;47.522;19.106;2023-02-08T01:23:33;35.40;;;12.68;;
54977;SDS011;40873;47.522;19.106;2023-02-08T01:26:00;31.80;;;12.57;;
54977;SDS011;40873;47.522;19.106;2023-02-08T01:28:27;39.13;;;14.65;;
54977;SDS011;40873;47.522;19.106;2023-02-08T01:30:54;37.78;;;13.45;;
54977;SDS011;40873;47.522;19.106;2023-02-08T01:33:21;32.20;;;13.75;;
54977;SDS011;40873;47.522;19.106;2023-02-08T01:35:51;26.98;;;11.52;;
54977;SDS011;40873;47.522;19.106;2023-02-08T01:38:18;24.23;;;10.32;;
54977;SDS011;40873;47.522;19.106;2023-02-08T01:40:45;38.85;;;14.32;;
54977;SDS011;40873;47.522;19.106;2023-02-08T01:43:16;32.55;;;11.95;;
54977;SDS011;40873;47.522;19.106;2023-02-08T01:45:49;27.17;;;12.20;;
54977;SDS011;40873;47.522;19.106;2023-02-08T01:48:17;32.20;;;13.30;;
54977;SDS011;40873;47.522;19.106;2023-02-08T01:50:51;31.67;;;13.10;;
54977;SDS011;40873;47.522;19.106;2023-02-08T01:55:52;20.33;;;9.20;;
54977;SDS011;40873;47.522;19.106;2023-02-08T01:58:22;24.42;;;12.00;;
54977;SDS011;40873;47.522;19.106;2023-02-08T02:00:51;30.70;;;12.32;;
54977;SDS011;40873;47.522;19.106;2023-02-08T02:03:19;25.98;;;12.57;;
54977;SDS011;40873;47.522;19.106;2023-02-08T02:05:51;28.58;;;10.73;;
54977;SDS011;40873;47.522;19.106;2023-02-08T02:08:23;30.20;;;10.82;;
54977;SDS011;40873;47.522;19.106;2023-02-08T02:10:50;24.17;;;9.88;;
54977;SDS011;40873;47.522;19.106;2023-02-08T02:13:18;26.80;;;9.95;;
54977;SDS011;40873;47.522;19.106;2023-02-08T02:15:47;27.92;;;10.98;;
54977;SDS011;40873;47.522;19.106;2023-02-08T02:18:39;27.92;;;10.52;;
54977;SDS011;40873;47.522;19.106;2023-02-08T02:21:12;18.92;;;9.27;;
54977;SDS011;40873;47.522;19.106;2023-02-08T02:30:04;25.25;;;10.20;;
54977;SDS011;40873;47.522;19.106;2023-02-08T02:32:53;23.77;;;8.98;;
54977;SDS011;40873;47.522;19.106;2023-02-08T02:38:19;23.50;;;10.07;;
54977;SDS011;40873;47.522;19.106;2023-02-08T02:41:13;19.65;;;7.28;;
54977;SDS011;40873;47.522;19.106;2023-02-08T02:44:13;30.55;;;8.32;;
54977;SDS011;40873;47.522;19.106;2023-02-08T02:46:52;18.10;;;8.10;;
54977;SDS011;40873;47.522;19.106;2023-02-08T02:49:33;17.02;;;8.85;;
54977;SDS011;40873;47.522;19.106;2023-02-08T02:52:11;22.75;;;8.10;;
54977;SDS011;40873;47.522;19.106;2023-02-08T02:54:53;22.35;;;8.30;;
54977;SDS011;40873;47.522;19.106;2023-02-08T02:57:30;16.80;;;7.45;;
54977;SDS011;40873;47.522;19.106;2023-02-08T03:00:00;25.15;;;9.00;;
54977;SDS011;40873;47.522;19.106;2023-02-08T03:02:33;15.43;;;7.28;;
54977;SDS011;40873;47.522;19.106;2023-02-08T03:05:01;16.92;;;8.20;;
54977;SDS011;40873;47.522;19.106;2023-02-08T03:13:42;19.85;;;7.82;;
54977;SDS011;40873;47.522;19.106;2023-02-08T03:19:18;14.75;;;6.60;;
54977;SDS011;40873;47.522;19.106;2023-02-08T03:21:57;10.52;;;5.35;;
54977;SDS011;40873;47.522;19.106;2023-02-08T03:24:39;16.23;;;6.75;;
54977;SDS011;40873;47.522;19.106;2023-02-08T03:27:26;21.00;;;6.25;;
54977;SDS011;40873;47.522;19.106;2023-02-08T03:32:42;20.23;;;6.72;;
54977;SDS011;40873;47.522;19.106;2023-02-08T03:40:46;17.77;;;6.90;;
54977;SDS011;40873;47.522;19.106;2023-02-08T03:43:19;16.05;;;6.20;;
54977;SDS011;40873;47.522;19.106;2023-02-08T03:45:54;17.42;;;7.05;;
54977;SDS011;40873;47.522;19.106;2023-02-08T03:48:27;16.08;;;6.53;;
54977;SDS011;40873;47.522;19.106;2023-02-08T03:50:56;20.77;;;7.55;;
54977;SDS011;40873;47.522;19.106;2023-02-08T03:53:28;14.90;;;7.57;;
54977;SDS011;40873;47.522;19.106;2023-02-08T03:56:06;17.13;;;7.03;;
54977;SDS011;40873;47.522;19.106;2023-02-08T04:01:13;12.60;;;5.43;;
54977;SDS011;40873;47.522;19.106;2023-02-08T04:03:45;15.07;;;5.70;;
54977;SDS011;40873;47.522;19.106;2023-02-08T04:06:15;19.67;;;6.47;;
54977;SDS011;40873;47.522;19.106;2023-02-08T04:08:43;20.52;;;6.55;;
54977;SDS011;40873;47.522;19.106;2023-02-08T04:11:10;14.80;;;5.88;;
54977;SDS011;40873;47.522;19.106;2023-02-08T04:13:37;13.45;;;5.32;;
54977;SDS011;40873;47.522;19.106;2023-02-08T04:16:04;9.95;;;5.22;;
54977;SDS011;40873;47.522;19.106;2023-02-08T04:18:31;13.43;;;4.50;;
54977;SDS011;40873;47.522;19.106;2023-02-08T04:20:58;20.25;;;6.32;;
54977;SDS011;40873;47.522;19.106;2023-02-08T04:23:25;14.93;;;5.68;;
54977;SDS011;40873;47.522;19.106;2023-02-08T04:25:52;18.05;;;6.60;;
54977;SDS011;40873;47.522;19.106;2023-02-08T04:28:19;16.00;;;6.00;;
54977;SDS011;40873;47.522;19.106;2023-02-08T04:30:46;15.98;;;6.43;;
54977;SDS011;40873;47.522;19.106;2023-02-08T04:33:13;12.38;;;5.55;;
54977;SDS011;40873;47.522;19.106;2023-02-08T04:35:40;12.38;;;5.15;;
54977;SDS011;40873;47.522;19.106;2023-02-08T04:38:08;15.80;;;5.82;;
54977;SDS011;40873;47.522;19.106;2023-02-08T04:40:35;17.92;;;6.03;;
54977;SDS011;40873;47.522;19.106;2023-02-08T04:43:02;18.42;;;6.47;;
54977;SDS011;40873;47.522;19.106;2023-02-08T04:45:29;12.10;;;4.78;;
54977;SDS011;40873;47.522;19.106;2023-02-08T04:47:59;10.98;;;5.45;;
54977;SDS011;40873;47.522;19.106;2023-02-08T04:50:26;13.00;;;5.38;;
54977;SDS011;40873;47.522;19.106;2023-02-08T04:52:54;13.63;;;5.15;;
54977;SDS011;40873;47.522;19.106;2023-02-08T04:55:20;10.02;;;4.63;;
54977;SDS011;40873;47.522;19.106;2023-02-08T04:57:48;14.80;;;5.40;;
54977;SDS011;40873;47.522;19.106;2023-02-08T05:00:15;11.27;;;4.53;;
54977;SDS011;40873;47.522;19.106;2023-02-08T05:02:42;9.60;;;4.72;;
54977;SDS011;40873;47.522;19.106;2023-02-08T05:05:09;13.80;;;5.55;;
54977;SDS011;40873;47.522;19.106;2023-02-08T05:07:37;13.60;;;5.13;;
54977;SDS011;40873;47.522;19.106;2023-02-08T05:10:03;14.13;;;4.60;;
54977;SDS011;40873;47.522;19.106;2023-02-08T05:12:31;10.50;;;5.28;;
54977;SDS011;40873;47.522;19.106;2023-02-08T05:14:58;13.98;;;5.43;;
54977;SDS011;40873;47.522;19.106;2023-02-08T05:17:25;12.95;;;5.07;;
54977;SDS011;40873;47.522;19.106;2023-02-08T05:19:51;11.77;;;4.65;;
54977;SDS011;40873;47.522;19.106;2023-02-08T05:22:19;11.38;;;5.50;;
54977;SDS011;40873;47.522;19.106;2023-02-08T05:24:45;12.35;;;5.32;;
54977;SDS011;40873;47.522;19.106;2023-02-08T05:27:13;12.45;;;4.70;;
54977;SDS011;40873;47.522;19.106;2023-02-08T05:29:40;13.35;;;5.13;;
54977;SDS011;40873;47.522;19.106;2023-02-08T05:32:08;16.63;;;5.95;;
54977;SDS011;40873;47.522;19.106;2023-02-08T05:34:35;10.02;;;4.68;;
54977;SDS011;40873;47.522;19.106;2023-02-08T05:37:03;12.38;;;5.13;;
54977;SDS011;40873;47.522;19.106;2023-02-08T05:39:30;13.52;;;5.05;;
54977;SDS011;40873;47.522;19.106;2023-02-08T05:41:57;9.98;;;4.53;;
54977;SDS011;40873;47.522;19.106;2023-02-08T05:44:26;11.38;;;5.43;;
54977;SDS011;40873;47.522;19.106;2023-02-08T05:46:53;11.73;;;5.13;;
54977;SDS011;40873;47.522;19.106;2023-02-08T05:49:20;8.85;;;4.22;;
54977;SDS011;40873;47.522;19.106;2023-02-08T05:51:47;13.13;;;5.82;;
54977;SDS011;40873;47.522;19.106;2023-02-08T05:54:16;13.38;;;5.68;;
54977;SDS011;40873;47.522;19.106;2023-02-08T05:56:43;9.40;;;4.45;;
54977;SDS011;40873;47.522;19.106;2023-02-08T05:59:10;14.88;;;6.30;;
54977;SDS011;40873;47.522;19.106;2023-02-08T06:01:37;12.05;;;5.85;;
54977;SDS011;40873;47.522;19.106;2023-02-08T06:04:05;15.57;;;4.97;;
54977;SDS011;40873;47.522;19.106;2023-02-08T06:06:32;11.50;;;5.85;;
54977;SDS011;40873;47.522;19.106;2023-02-08T06:09:02;11.18;;;5.40;;
54977;SDS011;40873;47.522;19.106;2023-02-08T06:11:30;10.23;;;4.70;;
54977;SDS011;40873;47.522;19.106;2023-02-08T06:13:57;11.07;;;4.47;;
54977;SDS011;40873;47.522;19.106;2023-02-08T06:16:24;11.73;;;5.43;;
54977;SDS011;40873;47.522;19.106;2023-02-08T06:18:51;9.93;;;4.50;;
54977;SDS011;40873;47.522;19.106;2023-02-08T06:21:18;15.75;;;5.28;;
54977;SDS011;40873;47.522;19.106;2023-02-08T06:23:45;19.13;;;6.55;;
54977;SDS011;40873;47.522;19.106;2023-02-08T06:26:13;13.18;;;5.85;;
54977;SDS011;40873;47.522;19.106;2023-02-08T06:28:39;12.57;;;5.72;;
54977;SDS011;40873;47.522;19.106;2023-02-08T06:31:07;13.63;;;5.97;;
54977;SDS011;40873;47.522;19.106;2023-02-08T06:33:33;14.05;;;6.13;;
54977;SDS011;40873;47.522;19.106;2023-02-08T06:36:01;12.35;;;4.30;;
54977;SDS011;40873;47.522;19.106;2023-02-08T06:38:27;12.07;;;4.75;;
54977;SDS011;40873;47.522;19.106;2023-02-08T06:40:54;11.38;;;5.22;;
54977;SDS011;40873;47.522;19.106;2023-02-08T06:43:21;13.60;;;5.85;;
54977;SDS011;40873;47.522;19.106;2023-02-08T06:45:48;15.00;;;6.63;;
54977;SDS011;40873;47.522;19.106;2023-02-08T06:48:15;11.68;;;6.53;;
54977;SDS011;40873;47.522;19.106;2023-02-08T06:50:42;13.43;;;6.95;;
54977;SDS011;40873;47.522;19.106;2023-02-08T06:53:10;14.10;;;5.93;;
54977;SDS011;40873;47.522;19.106;2023-02-08T06:55:37;12.82;;;5.63;;
54977;SDS011;40873;47.522;19.106;2023-02-08T06:58:04;12.35;;;6.00;;
54977;SDS011;40873;47.522;19.106;2023-02-08T07:00:31;16.55;;;5.80;;
54977;SDS011;40873;47.522;19.106;2023-02-08T07:02:58;10.15;;;5.70;;
54977;SDS011;40873;47.522;19.106;2023-02-08T07:05:26;15.52;;;6.25;;
54977;SDS011;40873;47.522;19.106;2023-02-08T07:07:53;14.40;;;5.95;;
54977;SDS011;40873;47.522;19.106;2023-02-08T07:10:20;17.75;;;6.40;;
54977;SDS011;40873;47.522;19.106;2023-02-08T07:12:47;11.07;;;5.30;;
54977;SDS011;40873;47.522;19.106;2023-02-08T07:15:14;15.10;;;6.60;;
54977;SDS011;40873;47.522;19.106;2023-02-08T07:17:41;17.25;;;6.78;;
54977;SDS011;40873;47.522;19.106;2023-02-08T07:20:08;16.77;;;6.53;;
54977;SDS011;40873;47.522;19.106;2023-02-08T07:22:37;12.43;;;5.72;;
54977;SDS011;40873;47.522;19.106;2023-02-08T07:25:05;16.35;;;6.90;;
54977;SDS011;40873;47.522;19.106;2023-02-08T07:27:33;15.73;;;6.65;;
54977;SDS011;40873;47.522;19.106;2023-02-08T07:30:01;12.90;;;6.20;;
54977;SDS011;40873;47.522;19.106;2023-02-08T07:32:28;14.15;;;6.30;;
54977;SDS011;40873;47.522;19.106;2023-02-08T07:34:55;17.08;;;6.15;;
54977;SDS011;40873;47.522;19.106;2023-02-08T07:37:22;17.60;;;5.93;;
54977;SDS011;40873;47.522;19.106;2023-02-08T07:39:49;17.35;;;7.65;;
54977;SDS011;40873;47.522;19.106;2023-02-08T07:42:16;16.42;;;6.03;;
54977;SDS011;40873;47.522;19.106;2023-02-08T07:44:43;13.93;;;7.20;;
54977;SDS011;40873;47.522;19.106;2023-02-08T07:47:13;15.18;;;6.90;;
54977;SDS011;40873;47.522;19.106;2023-02-08T07:49:40;16.58;;;6.63;;
54977;SDS011;40873;47.522;19.106;2023-02-08T07:52:07;18.67;;;5.93;;
54977;SDS011;40873;47.522;19.106;2023-02-08T07:54:34;20.48;;;6.38;;
54977;SDS011;40873;47.522;19.106;2023-02-08T07:57:01;13.65;;;6.00;;
54977;SDS011;40873;47.522;19.106;2023-02-08T07:59:29;15.48;;;7.03;;
54977;SDS011;40873;47.522;19.106;2023-02-08T08:01:56;16.38;;;6.50;;
54977;SDS011;40873;47.522;19.106;2023-02-08T08:04:23;15.43;;;7.10;;
54977;SDS011;40873;47.522;19.106;2023-02-08T08:06:50;23.40;;;6.80;;
54977;SDS011;40873;47.522;19.106;2023-02-08T08:09:17;13.98;;;6.40;;
54977;SDS011;40873;47.522;19.106;2023-02-08T08:11:45;15.95;;;6.53;;
54977;SDS011;40873;47.522;19.106;2023-02-08T08:14:12;13.02;;;5.50;;
54977;SDS011;40873;47.522;19.106;2023-02-08T08:16:39;15.85;;;7.68;;
54977;SDS011;40873;47.522;19.106;2023-02-08T08:19:08;24.88;;;7.25;;
54977;SDS011;40873;47.522;19.106;2023-02-08T08:21:35;18.20;;;7.78;;
54977;SDS011;40873;47.522;19.106;2023-02-08T08:24:02;15.15;;;7.03;;
54977;SDS011;40873;47.522;19.106;2023-02-08T08:26:29;16.92;;;7.43;;
54977;SDS011;40873;47.522;19.106;2023-02-08T08:28:56;17.20;;;6.80;;
54977;SDS011;40873;47.522;19.106;2023-02-08T08:31:23;20.88;;;7.82;;
54977;SDS011;40873;47.522;19.106;2023-02-08T08:33:50;17.98;;;6.60;;
54977;SDS011;40873;47.522;19.106;2023-02-08T08:36:17;21.38;;;8.20;;
54977;SDS011;40873;47.522;19.106;2023-02-08T08:38:45;19.23;;;7.95;;
54977;SDS011;40873;47.522;19.106;2023-02-08T08:41:13;14.77;;;7.00;;
54977;SDS011;40873;47.522;19.106;2023-02-08T08:43:42;17.42;;;7.40;;
54977;SDS011;40873;47.522;19.106;2023-02-08T08:46:10;17.80;;;7.05;;
54977;SDS011;40873;47.522;19.106;2023-02-08T08:48:37;16.15;;;7.95;;
54977;SDS011;40873;47.522;19.106;2023-02-08T08:51:04;17.65;;;5.70;;
54977;SDS011;40873;47.522;19.106;2023-02-08T08:53:32;14.07;;;5.65;;
54977;SDS011;40873;47.522;19.106;2023-02-08T08:55:59;13.15;;;6.22;;
54977;SDS011;40873;47.522;19.106;2023-02-08T08:58:26;16.40;;;6.85;;
54977;SDS011;40873;47.522;19.106;2023-02-08T09:00:57;13.68;;;4.72;;
54977;SDS011;40873;47.522;19.106;2023-02-08T09:03:26;11.65;;;5.22;;
54977;SDS011;40873;47.522;19.106;2023-02-08T09:05:53;10.48;;;5.13;;
54977;SDS011;40873;47.522;19.106;2023-02-08T09:08:20;10.65;;;4.25;;
54977;SDS011;40873;47.522;19.106;2023-02-08T09:10:47;10.30;;;4.60;;
54977;SDS011;40873;47.522;19.106;2023-02-08T09:13:14;13.18;;;4.80;;
54977;SDS011;40873;47.522;19.106;2023-02-08T09:15:45;10.57;;;4.28;;
54977;SDS011;40873;47.522;19.106;2023-02-08T09:18:13;11.60;;;4.18;;
54977;SDS011;40873;47.522;19.106;2023-02-08T09:20:40;11.55;;;4.47;;
54977;SDS011;40873;47.522;19.106;2023-02-08T09:23:08;8.88;;;4.43;;
54977;SDS011;40873;47.522;19.106;2023-02-08T09:25:35;9.13;;;4.15;;
54977;SDS011;40873;47.522;19.106;2023-02-08T09:28:03;9.88;;;4.72;;
54977;SDS011;40873;47.522;19.106;2023-02-08T09:30:30;10.90;;;4.22;;
54977;SDS011;40873;47.522;19.106;2023-02-08T09:32:58;16.52;;;4.80;;
54977;SDS011;40873;47.522;19.106;2023-02-08T09:35:25;9.65;;;4.53;;
54977;SDS011;40873;47.522;19.106;2023-02-08T09:37:53;12.10;;;3.85;;
54977;SDS011;40873;47.522;19.106;2023-02-08T09:40:23;13.77;;;4.53;;
54977;SDS011;40873;47.522;19.106;2023-02-08T09:42:53;12.38;;;5.38;;
54977;SDS011;40873;47.522;19.106;2023-02-08T09:45:49;12.60;;;5.28;;
54977;SDS011;40873;47.522;19.106;2023-02-08T09:48:30;13.82;;;4.88;;
54977;SDS011;40873;47.522;19.106;2023-02-08T09:53:48;12.75;;;5.50;;
54977;SDS011;40873;47.522;19.106;2023-02-08T09:56:22;13.20;;;4.43;;
54977;SDS011;40873;47.522;19.106;2023-02-08T09:58:54;11.27;;;4.85;;
54977;SDS011;40873;47.522;19.106;2023-02-08T10:06:53;12.10;;;5.05;;
54977;SDS011;40873;47.522;19.106;2023-02-08T10:09:21;10.95;;;5.47;;
54977;SDS011;40873;47.522;19.106;2023-02-08T10:11:54;10.02;;;5.85;;
54977;SDS011;40873;47.522;19.106;2023-02-08T10:14:54;9.82;;;4.97;;
54977;SDS011;40873;47.522;19.106;2023-02-08T10:23:29;10.77;;;5.53;;
54977;SDS011;40873;47.522;19.106;2023-02-08T10:37:14;11.07;;;5.18;;
54977;SDS011;40873;47.522;19.106;2023-02-08T10:39:43;11.43;;;4.82;;
54977;SDS011;40873;47.522;19.106;2023-02-08T10:42:18;9.98;;;5.40;;
54977;SDS011;40873;47.522;19.106;2023-02-08T10:47:54;14.25;;;5.55;;
54977;SDS011;40873;47.522;19.106;2023-02-08T10:53:03;12.32;;;5.95;;
54977;SDS011;40873;47.522;19.106;2023-02-08T10:55:31;10.07;;;5.55;;
54977;SDS011;40873;47.522;19.106;2023-02-08T10:58:03;15.82;;;6.45;;
54977;SDS011;40873;47.522;19.106;2023-02-08T11:00:35;12.73;;;5.78;;
54977;SDS011;40873;47.522;19.106;2023-02-08T11:05:53;11.68;;;5.95;;
54977;SDS011;40873;47.522;19.106;2023-02-08T11:08:21;9.77;;;4.82;;
54977;SDS011;40873;47.522;19.106;2023-02-08T11:10:59;11.40;;;5.97;;
54977;SDS011;40873;47.522;19.106;2023-02-08T11:13:32;10.07;;;4.85;;
54977;SDS011;40873;47.522;19.106;2023-02-08T11:16:02;11.27;;;4.57;;
54977;SDS011;40873;47.522;19.106;2023-02-08T11:18:35;10.23;;;5.57;;
54977;SDS011;40873;47.522;19.106;2023-02-08T11:21:27;15.70;;;5.65;;
54977;SDS011;40873;47.522;19.106;2023-02-08T11:26:41;10.57;;;5.35;;
54977;SDS011;40873;47.522;19.106;2023-02-08T11:29:19;11.15;;;5.55;;
54977;SDS011;40873;47.522;19.106;2023-02-08T11:34:35;11.38;;;5.40;;
54977;SDS011;40873;47.522;19.106;2023-02-08T11:39:50;12.23;;;5.50;;
54977;SDS011;40873;47.522;19.106;2023-02-08T11:42:21;11.50;;;5.97;;
54977;SDS011;40873;47.522;19.106;2023-02-08T11:44:52;10.77;;;5.05;;
54977;SDS011;40873;47.522;19.106;2023-02-08T11:47:27;10.27;;;5.60;;
54977;SDS011;40873;47.522;19.106;2023-02-08T11:50:05;12.32;;;6.07;;
54977;SDS011;40873;47.522;19.106;2023-02-08T11:52:40;12.70;;;5.93;;
54977;SDS011;40873;47.522;19.106;2023-02-08T12:00:46;10.43;;;5.47;;
54977;SDS011;40873;47.522;19.106;2023-02-08T12:03:42;12.05;;;5.53;;
54977;SDS011;40873;47.522;19.106;2023-02-08T12:16:35;9.60;;;4.80;;
54977;SDS011;40873;47.522;19.106;2023-02-08T12:22:23;12.05;;;5.18;;
54977;SDS011;40873;47.522;19.106;2023-02-08T12:53:39;10.60;;;4.78;;
54977;SDS011;40873;47.522;19.106;2023-02-08T12:56:12;9.45;;;4.32;;
54977;SDS011;40873;47.522;19.106;2023-02-08T12:58:57;9.52;;;5.10;;
54977;SDS011;40873;47.522;19.106;2023-02-08T13:01:43;11.68;;;4.70;;
54977;SDS011;40873;47.522;19.106;2023-02-08T13:04:21;9.50;;;4.75;;
54977;SDS011;40873;47.522;19.106;2023-02-08T13:06:57;9.75;;;4.57;;
54977;SDS011;40873;47.522;19.106;2023-02-08T13:12:15;7.20;;;2.70;;
54977;SDS011;40873;47.522;19.106;2023-02-08T13:14:57;11.43;;;4.22;;
54977;SDS011;40873;47.522;19.106;2023-02-08T13:17:30;14.68;;;5.25;;
54977;SDS011;40873;47.522;19.106;2023-02-08T13:22:38;11.25;;;4.38;;
54977;SDS011;40873;47.522;19.106;2023-02-08T13:25:20;16.77;;;5.60;;
54977;SDS011;40873;47.522;19.106;2023-02-08T13:27:58;10.25;;;4.35;;
54977;SDS011;40873;47.522;19.106;2023-02-08T13:30:26;10.35;;;4.75;;
54977;SDS011;40873;47.522;19.106;2023-02-08T13:32:53;8.63;;;4.03;;
54977;SDS011;40873;47.522;19.106;2023-02-08T13:35:25;11.52;;;4.82;;
54977;SDS011;40873;47.522;19.106;2023-02-08T13:40:29;8.50;;;4.22;;
54977;SDS011;40873;47.522;19.106;2023-02-08T13:43:04;8.73;;;3.80;;
54977;SDS011;40873;47.522;19.106;2023-02-08T13:45:39;15.15;;;4.63;;
54977;SDS011;40873;47.522;19.106;2023-02-08T13:48:10;9.13;;;3.85;;
54977;SDS011;40873;47.522;19.106;2023-02-08T13:50:41;10.30;;;4.80;;
54977;SDS011;40873;47.522;19.106;2023-02-08T13:53:09;8.55;;;4.13;;
54977;SDS011;40873;47.522;19.106;2023-02-08T13:55:56;9.30;;;4.45;;
54977;SDS011;40873;47.522;19.106;2023-02-08T13:58:27;10.55;;;4.50;;
54977;SDS011;40873;47.522;19.106;2023-02-08T14:01:01;7.78;;;3.95;;
54977;SDS011;40873;47.522;19.106;2023-02-08T14:03:39;7.50;;;3.53;;
54977;SDS011;40873;47.522;19.106;2023-02-08T14:06:14;11.38;;;4.38;;
54977;SDS011;40873;47.522;19.106;2023-02-08T14:14:29;8.88;;;3.38;;
54977;SDS011;40873;47.522;19.106;2023-02-08T14:19:30;11.00;;;4.90;;
54977;SDS011;40873;47.522;19.106;2023-02-08T14:22:02;7.57;;;3.30;;
54977;SDS011;40873;47.522;19.106;2023-02-08T14:24:42;6.93;;;2.97;;
54977;SDS011;40873;47.522;19.106;2023-02-08T14:29:56;12.25;;;3.75;;
54977;SDS011;40873;47.522;19.106;2023-02-08T14:32:28;7.53;;;4.10;;
54977;SDS011;40873;47.522;19.106;2023-02-08T14:37:33;8.82;;;4.30;;
54977;SDS011;40873;47.522;19.106;2023-02-08T14:42:57;9.93;;;3.70;;
54977;SDS011;40873;47.522;19.106;2023-02-08T14:45:30;8.07;;;4.20;;
54977;SDS011;40873;47.522;19.106;2023-02-08T14:48:17;8.38;;;3.83;;
54977;SDS011;40873;47.522;19.106;2023-02-08T14:58:44;11.57;;;5.70;;
54977;SDS011;40873;47.522;19.106;2023-02-08T15:01:19;9.35;;;5.15;;
54977;SDS011;40873;47.522;19.106;2023-02-08T15:03:52;10.77;;;5.18;;
54977;SDS011;40873;47.522;19.106;2023-02-08T15:06:35;8.63;;;4.38;;
54977;SDS011;40873;47.522;19.106;2023-02-08T15:09:27;12.85;;;4.43;;
54977;SDS011;40873;47.522;19.106;2023-02-08T15:12:02;11.65;;;4.35;;
54977;SDS011;40873;47.522;19.106;2023-02-08T15:14:34;8.95;;;4.38;;
54977;SDS011;40873;47.522;19.106;2023-02-08T15:17:05;11.10;;;4.82;;
54977;SDS011;40873;47.522;19.106;2023-02-08T15:19:41;11.52;;;4.85;;
54977;SDS011;40873;47.522;19.106;2023-02-08T15:24:54;13.07;;;5.18;;
54977;SDS011;40873;47.522;19.106;2023-02-08T15:27:23;10.25;;;4.68;;
54977;SDS011;40873;47.522;19.106;2023-02-08T15:29:52;17.17;;;5.70;;
54977;SDS011;40873;47.522;19.106;2023-02-08T15:32:20;14.05;;;5.72;;
54977;SDS011;40873;47.522;19.106;2023-02-08T15:34:54;18.60;;;6.55;;
54977;SDS011;40873;47.522;19.106;2023-02-08T15:37:32;14.75;;;6.68;;
54977;SDS011;40873;47.522;19.106;2023-02-08T15:40:00;15.60;;;5.90;;
54977;SDS011;40873;47.522;19.106;2023-02-08T15:42:30;16.40;;;6.13;;
54977;SDS011;40873;47.522;19.106;2023-02-08T15:44:59;19.48;;;5.95;;
54977;SDS011;40873;47.522;19.106;2023-02-08T15:47:35;13.60;;;5.70;;
54977;SDS011;40873;47.522;19.106;2023-02-08T15:50:04;16.80;;;6.68;;
54977;SDS011;40873;47.522;19.106;2023-02-08T15:52:33;19.95;;;6.53;;
54977;SDS011;40873;47.522;19.106;2023-02-08T15:55:04;14.50;;;6.50;;
54977;SDS011;40873;47.522;19.106;2023-02-08T16:00:28;13.90;;;5.68;;
54977;SDS011;40873;47.522;19.106;2023-02-08T16:03:06;14.80;;;5.78;;
54977;SDS011;40873;47.522;19.106;2023-02-08T16:05:47;15.30;;;6.88;;
54977;SDS011;40873;47.522;19.106;2023-02-08T16:08:24;16.17;;;6.72;;
54977;SDS011;40873;47.522;19.106;2023-02-08T16:11:01;11.90;;;5.38;;
54977;SDS011;40873;47.522;19.106;2023-02-08T16:13:35;14.80;;;5.95;;
54977;SDS011;40873;47.522;19.106;2023-02-08T16:18:46;14.90;;;5.25;;
54977;SDS011;40873;47.522;19.106;2023-02-08T16:23:51;16.90;;;6.13;;
54977;SDS011;40873;47.522;19.106;2023-02-08T16:26:27;14.87;;;7.23;;
54977;SDS011;40873;47.522;19.106;2023-02-08T16:31:30;24.85;;;9.80;;
54977;SDS011;40873;47.522;19.106;2023-02-08T16:34:02;19.92;;;8.27;;
54977;SDS011;40873;47.522;19.106;2023-02-08T16:36:32;18.92;;;7.60;;
54977;SDS011;40873;47.522;19.106;2023-02-08T16:44:41;18.15;;;8.45;;
54977;SDS011;40873;47.522;19.106;2023-02-08T16:50:32;14.63;;;7.38;;
54977;SDS011;40873;47.522;19.106;2023-02-08T16:53:00;18.00;;;8.48;;
54977;SDS011;40873;47.522;19.106;2023-02-08T16:55:30;20.90;;;8.52;;
54977;SDS011;40873;47.522;19.106;2023-02-08T16:57:59;17.63;;;7.60;;
54977;SDS011;40873;47.522;19.106;2023-02-08T17:00:30;22.45;;;9.10;;
54977;SDS011;40873;47.522;19.106;2023-02-08T17:02:59;17.35;;;7.88;;
54977;SDS011;40873;47.522;19.106;2023-02-08T17:05:28;22.30;;;9.13;;
54977;SDS011;40873;47.522;19.106;2023-02-08T17:07:57;24.08;;;8.68;;
54977;SDS011;40873;47.522;19.106;2023-02-08T17:10:26;20.90;;;8.73;;
54977;SDS011;40873;47.522;19.106;2023-02-08T17:12:55;22.73;;;9.32;;
54977;SDS011;40873;47.522;19.106;2023-02-08T17:15:44;22.42;;;8.85;;
54977;SDS011;40873;47.522;19.106;2023-02-08T17:18:12;19.20;;;8.63;;
54977;SDS011;40873;47.522;19.106;2023-02-08T17:20:40;16.83;;;7.63;;
54977;SDS011;40873;47.522;19.106;2023-02-08T17:23:08;18.35;;;8.85;;
54977;SDS011;40873;47.522;19.106;2023-02-08T17:25:36;17.23;;;8.13;;
54977;SDS011;40873;47.522;19.106;2023-02-08T17:28:04;21.60;;;10.23;;
54977;SDS011;40873;47.522;19.106;2023-02-08T17:30:37;21.00;;;8.73;;
54977;SDS011;40873;47.522;19.106;2023-02-08T17:33:06;17.40;;;8.55;;
54977;SDS011;40873;47.522;19.106;2023-02-08T17:35:37;22.00;;;10.07;;
54977;SDS011;40873;47.522;19.106;2023-02-08T17:38:04;22.58;;;9.50;;
54977;SDS011;40873;47.522;19.106;2023-02-08T17:40:33;24.45;;;10.13;;